sensor_id;sensor_type;location;lat;lon;timestamp;P1;durP1;ratioP1;P2;durP2;ratioP2
8574;SDS011;4325;42.520;27.448;2024-01-15T00:00:11;45.90;;;19.67;;
8574;SDS011;4325;42.520;27.448;2024-01-15T00:02:39;43.07;;;20.60;;
8574;SDS011;4325;42.520;27.448;2024-01-15T00:05:06;43.50;;;20.67;;
8574;SDS011;4325;42.520;27.448;2024-01-15T00:07:35;46.03;;;20.83;;
8574;SDS011;4325;42.520;27.448;2024-01-15T00:10:02;52.33;;;22.73;;
8574;SDS011;4325;42.520;27.448;2024-01-15T00:12:29;40.73;;;21.13;;
8574;SDS011;4325;42.520;27.448;2024-01-15T00:14:56;40.60;;;21.43;;
8574;SDS011;4325;42.520;27.448;2024-01-15T00:17:24;44.33;;;21.10;;
8574;SDS011;4325;42.520;27.448;2024-01-15T00:19:51;40.03;;;20.20;;
8574;SDS011;4325;42.520;27.448;2024-01-15T00:22:18;44.63;;;19.87;;
8574;SDS011;4325;42.520;27.448;2024-01-15T00:24:47;39.23;;;18.63;;
8574;SDS011;4325;42.520;27.448;2024-01-15T00:27:16;37.33;;;18.67;;
8574;SDS011;4325;42.520;27.448;2024-01-15T00:29:43;34.23;;;17.63;;
8574;SDS011;4325;42.520;27.448;2024-01-15T00:32:11;37.20;;;18.43;;
8574;SDS011;4325;42.520;27.448;2024-01-15T00:34:38;35.33;;;17.40;;
8574;SDS011;4325;42.520;27.448;2024-01-15T00:37:05;36.47;;;17.60;;
8574;SDS011;4325;42.520;27.448;2024-01-15T00:39:32;37.70;;;16.93;;
8574;SDS011;4325;42.520;27.448;2024-01-15T00:42:00;31.50;;;15.97;;
8574;SDS011;4325;42.520;27.448;2024-01-15T00:44:28;32.57;;;15.67;;
8574;SDS011;4325;42.520;27.448;2024-01-15T00:46:55;35.83;;;16.37;;
8574;SDS011;4325;42.520;27.448;2024-01-15T00:49:22;32.07;;;16.30;;
8574;SDS011;4325;42.520;27.448;2024-01-15T00:51:49;36.53;;;16.87;;
8574;SDS011;4325;42.520;27.448;2024-01-15T00:54:16;33.87;;;16.37;;
8574;SDS011;4325;42.520;27.448;2024-01-15T00:56:43;37.13;;;17.70;;
8574;SDS011;4325;42.520;27.448;2024-01-15T00:59:12;35.90;;;17.67;;
8574;SDS011;4325;42.520;27.448;2024-01-15T01:01:40;36.30;;;18.07;;
8574;SDS011;4325;42.520;27.448;2024-01-15T01:04:08;34.20;;;16.70;;
8574;SDS011;4325;42.520;27.448;2024-01-15T01:06:35;37.50;;;16.83;;
8574;SDS011;4325;42.520;27.448;2024-01-15T01:09:02;40.13;;;19.10;;
8574;SDS011;4325;42.520;27.448;2024-01-15T01:11:30;47.37;;;20.60;;
8574;SDS011;4325;42.520;27.448;2024-01-15T01:13:57;45.33;;;21.97;;
8574;SDS011;4325;42.520;27.448;2024-01-15T01:16:25;50.20;;;22.67;;
8574;SDS011;4325;42.520;27.448;2024-01-15T01:18:52;46.13;;;22.67;;
8574;SDS011;4325;42.520;27.448;2024-01-15T01:21:19;46.67;;;21.63;;
8574;SDS011;4325;42.520;27.448;2024-01-15T01:23:46;43.90;;;20.67;;
8574;SDS011;4325;42.520;27.448;2024-01-15T01:26:15;40.23;;;21.23;;
8574;SDS011;4325;42.520;27.448;2024-01-15T01:28:42;46.93;;;21.93;;
8574;SDS011;4325;42.520;27.448;2024-01-15T01:31:10;44.03;;;20.60;;
8574;SDS011;4325;42.520;27.448;2024-01-15T01:33:39;53.80;;;22.87;;
8574;SDS011;4325;42.520;27.448;2024-01-15T01:36:09;51.00;;;24.53;;
8574;SDS011;4325;42.520;27.448;2024-01-15T01:38:36;51.40;;;23.90;;
8574;SDS011;4325;42.520;27.448;2024-01-15T01:41:03;52.17;;;24.67;;
8574;SDS011;4325;42.520;27.448;2024-01-15T01:43:30;45.10;;;21.13;;
8574;SDS011;4325;42.520;27.448;2024-01-15T01:45:57;45.70;;;23.33;;
8574;SDS011;4325;42.520;27.448;2024-01-15T01:48:26;44.70;;;21.83;;
8574;SDS011;4325;42.520;27.448;2024-01-15T01:50:57;42.97;;;20.63;;
8574;SDS011;4325;42.520;27.448;2024-01-15T01:53:26;49.17;;;21.57;;
8574;SDS011;4325;42.520;27.448;2024-01-15T01:55:53;45.13;;;22.03;;
8574;SDS011;4325;42.520;27.448;2024-01-15T01:58:22;43.37;;;21.13;;
8574;SDS011;4325;42.520;27.448;2024-01-15T02:00:50;49.83;;;22.43;;
8574;SDS011;4325;42.520;27.448;2024-01-15T02:03:17;45.37;;;20.87;;
8574;SDS011;4325;42.520;27.448;2024-01-15T02:05:44;46.90;;;22.20;;
8574;SDS011;4325;42.520;27.448;2024-01-15T02:08:16;47.07;;;21.73;;
8574;SDS011;4325;42.520;27.448;2024-01-15T02:10:43;47.97;;;20.60;;
8574;SDS011;4325;42.520;27.448;2024-01-15T02:13:10;53.10;;;25.17;;
8574;SDS011;4325;42.520;27.448;2024-01-15T02:15:38;50.97;;;22.47;;
8574;SDS011;4325;42.520;27.448;2024-01-15T02:18:05;47.63;;;22.00;;
8574;SDS011;4325;42.520;27.448;2024-01-15T02:20:33;52.13;;;22.53;;
8574;SDS011;4325;42.520;27.448;2024-01-15T02:23:04;49.47;;;22.03;;
8574;SDS011;4325;42.520;27.448;2024-01-15T02:25:34;43.67;;;22.10;;
8574;SDS011;4325;42.520;27.448;2024-01-15T02:28:02;46.90;;;23.27;;
8574;SDS011;4325;42.520;27.448;2024-01-15T02:30:30;46.57;;;21.13;;
8574;SDS011;4325;42.520;27.448;2024-01-15T02:32:57;46.27;;;21.50;;
8574;SDS011;4325;42.520;27.448;2024-01-15T02:35:24;45.57;;;20.87;;
8574;SDS011;4325;42.520;27.448;2024-01-15T02:37:51;43.37;;;20.13;;
8574;SDS011;4325;42.520;27.448;2024-01-15T02:40:20;49.67;;;22.90;;
8574;SDS011;4325;42.520;27.448;2024-01-15T02:42:47;46.43;;;20.93;;
8574;SDS011;4325;42.520;27.448;2024-01-15T02:45:14;44.97;;;20.37;;
8574;SDS011;4325;42.520;27.448;2024-01-15T02:47:41;43.77;;;20.67;;
8574;SDS011;4325;42.520;27.448;2024-01-15T02:50:08;41.97;;;20.10;;
8574;SDS011;4325;42.520;27.448;2024-01-15T02:52:35;47.97;;;19.90;;
8574;SDS011;4325;42.520;27.448;2024-01-15T02:55:02;46.60;;;21.67;;
8574;SDS011;4325;42.520;27.448;2024-01-15T02:57:31;43.90;;;20.17;;
8574;SDS011;4325;42.520;27.448;2024-01-15T02:59:58;47.10;;;21.23;;
8574;SDS011;4325;42.520;27.448;2024-01-15T03:02:25;47.10;;;20.17;;
8574;SDS011;4325;42.520;27.448;2024-01-15T03:04:53;43.87;;;21.60;;
8574;SDS011;4325;42.520;27.448;2024-01-15T03:07:20;44.20;;;20.20;;
8574;SDS011;4325;42.520;27.448;2024-01-15T03:09:47;41.50;;;19.50;;
8574;SDS011;4325;42.520;27.448;2024-01-15T03:12:14;47.93;;;20.20;;
8574;SDS011;4325;42.520;27.448;2024-01-15T03:14:43;46.33;;;19.60;;
8574;SDS011;4325;42.520;27.448;2024-01-15T03:17:10;40.20;;;19.00;;
8574;SDS011;4325;42.520;27.448;2024-01-15T03:19:37;48.37;;;22.13;;
8574;SDS011;4325;42.520;27.448;2024-01-15T03:22:04;45.03;;;22.43;;
8574;SDS011;4325;42.520;27.448;2024-01-15T03:24:33;48.27;;;20.77;;
8574;SDS011;4325;42.520;27.448;2024-01-15T03:27:00;40.20;;;18.33;;
8574;SDS011;4325;42.520;27.448;2024-01-15T03:29:27;47.63;;;20.83;;
8574;SDS011;4325;42.520;27.448;2024-01-15T03:31:56;43.53;;;19.37;;
8574;SDS011;4325;42.520;27.448;2024-01-15T03:34:23;46.47;;;19.57;;
8574;SDS011;4325;42.520;27.448;2024-01-15T03:36:50;44.27;;;18.67;;
8574;SDS011;4325;42.520;27.448;2024-01-15T03:39:17;48.07;;;21.73;;
8574;SDS011;4325;42.520;27.448;2024-01-15T03:41:44;44.77;;;19.20;;
8574;SDS011;4325;42.520;27.448;2024-01-15T03:44:11;43.07;;;19.93;;
8574;SDS011;4325;42.520;27.448;2024-01-15T03:46:38;39.80;;;19.30;;
8574;SDS011;4325;42.520;27.448;2024-01-15T03:49:07;46.07;;;21.13;;
8574;SDS011;4325;42.520;27.448;2024-01-15T03:51:34;49.67;;;21.07;;
8574;SDS011;4325;42.520;27.448;2024-01-15T03:54:01;49.33;;;21.43;;
8574;SDS011;4325;42.520;27.448;2024-01-15T03:56:28;45.17;;;20.07;;
8574;SDS011;4325;42.520;27.448;2024-01-15T03:58:55;49.37;;;20.50;;
8574;SDS011;4325;42.520;27.448;2024-01-15T04:01:22;47.67;;;21.50;;
8574;SDS011;4325;42.520;27.448;2024-01-15T04:03:49;42.17;;;19.97;;
8574;SDS011;4325;42.520;27.448;2024-01-15T04:06:18;43.13;;;19.70;;
8574;SDS011;4325;42.520;27.448;2024-01-15T04:08:45;41.97;;;19.33;;
8574;SDS011;4325;42.520;27.448;2024-01-15T04:11:13;36.77;;;18.40;;
8574;SDS011;4325;42.520;27.448;2024-01-15T04:13:40;41.50;;;19.43;;
8574;SDS011;4325;42.520;27.448;2024-01-15T04:16:07;43.30;;;18.33;;
8574;SDS011;4325;42.520;27.448;2024-01-15T04:18:34;41.67;;;19.13;;
8574;SDS011;4325;42.520;27.448;2024-01-15T04:21:03;43.63;;;20.17;;
8574;SDS011;4325;42.520;27.448;2024-01-15T04:23:32;45.57;;;20.17;;
8574;SDS011;4325;42.520;27.448;2024-01-15T04:25:59;49.40;;;22.17;;
8574;SDS011;4325;42.520;27.448;2024-01-15T04:28:26;43.53;;;20.90;;
8574;SDS011;4325;42.520;27.448;2024-01-15T04:30:53;46.77;;;21.30;;
8574;SDS011;4325;42.520;27.448;2024-01-15T04:33:20;43.60;;;22.50;;
8574;SDS011;4325;42.520;27.448;2024-01-15T04:35:47;38.90;;;20.53;;
8574;SDS011;4325;42.520;27.448;2024-01-15T04:38:15;54.07;;;22.73;;
8574;SDS011;4325;42.520;27.448;2024-01-15T04:40:44;48.07;;;22.23;;
8574;SDS011;4325;42.520;27.448;2024-01-15T04:43:11;43.50;;;20.03;;
8574;SDS011;4325;42.520;27.448;2024-01-15T04:45:38;48.43;;;21.60;;
8574;SDS011;4325;42.520;27.448;2024-01-15T04:48:05;50.47;;;22.87;;
8574;SDS011;4325;42.520;27.448;2024-01-15T04:50:32;39.00;;;18.67;;
8574;SDS011;4325;42.520;27.448;2024-01-15T04:52:59;45.63;;;21.10;;
8574;SDS011;4325;42.520;27.448;2024-01-15T04:55:26;40.90;;;18.70;;
8574;SDS011;4325;42.520;27.448;2024-01-15T04:57:54;39.27;;;20.03;;
8574;SDS011;4325;42.520;27.448;2024-01-15T05:00:21;44.50;;;20.50;;
8574;SDS011;4325;42.520;27.448;2024-01-15T05:02:48;43.10;;;20.77;;
8574;SDS011;4325;42.520;27.448;2024-01-15T05:05:16;50.63;;;21.20;;
8574;SDS011;4325;42.520;27.448;2024-01-15T05:07:43;49.63;;;23.07;;
8574;SDS011;4325;42.520;27.448;2024-01-15T05:10:10;46.40;;;22.67;;
8574;SDS011;4325;42.520;27.448;2024-01-15T05:12:37;43.57;;;20.70;;
8574;SDS011;4325;42.520;27.448;2024-01-15T05:15:06;57.07;;;24.10;;
8574;SDS011;4325;42.520;27.448;2024-01-15T05:17:34;42.93;;;22.30;;
8574;SDS011;4325;42.520;27.448;2024-01-15T05:20:01;48.80;;;22.33;;
8574;SDS011;4325;42.520;27.448;2024-01-15T05:22:29;47.27;;;22.20;;
8574;SDS011;4325;42.520;27.448;2024-01-15T05:24:56;47.90;;;22.70;;
8574;SDS011;4325;42.520;27.448;2024-01-15T05:27:24;50.47;;;23.30;;
8574;SDS011;4325;42.520;27.448;2024-01-15T05:29:51;53.00;;;23.63;;
8574;SDS011;4325;42.520;27.448;2024-01-15T05:32:19;55.17;;;23.40;;
8574;SDS011;4325;42.520;27.448;2024-01-15T05:34:46;52.30;;;23.27;;
8574;SDS011;4325;42.520;27.448;2024-01-15T05:37:13;55.90;;;24.60;;
8574;SDS011;4325;42.520;27.448;2024-01-15T05:39:40;51.40;;;23.67;;
8574;SDS011;4325;42.520;27.448;2024-01-15T05:42:07;59.17;;;28.80;;
8574;SDS011;4325;42.520;27.448;2024-01-15T05:44:34;62.73;;;27.83;;
8574;SDS011;4325;42.520;27.448;2024-01-15T05:47:01;79.83;;;38.30;;
8574;SDS011;4325;42.520;27.448;2024-01-15T05:49:30;69.23;;;35.13;;
8574;SDS011;4325;42.520;27.448;2024-01-15T05:51:57;59.07;;;26.80;;
8574;SDS011;4325;42.520;27.448;2024-01-15T05:54:24;55.17;;;26.33;;
8574;SDS011;4325;42.520;27.448;2024-01-15T05:56:51;51.80;;;23.57;;
8574;SDS011;4325;42.520;27.448;2024-01-15T05:59:18;50.63;;;22.67;;
8574;SDS011;4325;42.520;27.448;2024-01-15T06:01:45;43.57;;;20.17;;
8574;SDS011;4325;42.520;27.448;2024-01-15T06:04:12;49.43;;;23.00;;
8574;SDS011;4325;42.520;27.448;2024-01-15T06:06:41;43.33;;;21.47;;
8574;SDS011;4325;42.520;27.448;2024-01-15T06:09:08;43.33;;;20.80;;
8574;SDS011;4325;42.520;27.448;2024-01-15T06:11:35;40.37;;;19.63;;
8574;SDS011;4325;42.520;27.448;2024-01-15T06:14:02;42.63;;;20.03;;
8574;SDS011;4325;42.520;27.448;2024-01-15T06:16:29;45.03;;;18.93;;
8574;SDS011;4325;42.520;27.448;2024-01-15T06:18:56;41.77;;;19.83;;
8574;SDS011;4325;42.520;27.448;2024-01-15T06:21:23;40.37;;;18.53;;
8574;SDS011;4325;42.520;27.448;2024-01-15T06:23:52;38.23;;;17.37;;
8574;SDS011;4325;42.520;27.448;2024-01-15T06:26:22;34.87;;;17.13;;
8574;SDS011;4325;42.520;27.448;2024-01-15T06:28:49;38.67;;;18.73;;
8574;SDS011;4325;42.520;27.448;2024-01-15T06:31:16;37.63;;;20.50;;
8574;SDS011;4325;42.520;27.448;2024-01-15T06:33:43;47.87;;;22.53;;
8574;SDS011;4325;42.520;27.448;2024-01-15T06:36:12;46.13;;;21.43;;
8574;SDS011;4325;42.520;27.448;2024-01-15T06:38:39;54.27;;;25.87;;
8574;SDS011;4325;42.520;27.448;2024-01-15T06:41:07;52.07;;;26.67;;
8574;SDS011;4325;42.520;27.448;2024-01-15T06:43:35;67.03;;;30.20;;
8574;SDS011;4325;42.520;27.448;2024-01-15T06:46:02;45.00;;;22.73;;
8574;SDS011;4325;42.520;27.448;2024-01-15T06:48:29;61.23;;;29.17;;
8574;SDS011;4325;42.520;27.448;2024-01-15T06:50:56;98.50;;;41.07;;
8574;SDS011;4325;42.520;27.448;2024-01-15T06:53:23;79.23;;;36.03;;
8574;SDS011;4325;42.520;27.448;2024-01-15T06:55:50;59.83;;;28.07;;
8574;SDS011;4325;42.520;27.448;2024-01-15T06:58:18;53.53;;;25.47;;
8574;SDS011;4325;42.520;27.448;2024-01-15T07:00:46;57.10;;;23.07;;
8574;SDS011;4325;42.520;27.448;2024-01-15T07:03:13;48.27;;;20.77;;
8574;SDS011;4325;42.520;27.448;2024-01-15T07:05:40;40.40;;;20.03;;
8574;SDS011;4325;42.520;27.448;2024-01-15T07:08:07;40.73;;;20.77;;
8574;SDS011;4325;42.520;27.448;2024-01-15T07:10:34;42.23;;;20.90;;
8574;SDS011;4325;42.520;27.448;2024-01-15T07:13:01;52.40;;;26.27;;
8574;SDS011;4325;42.520;27.448;2024-01-15T07:15:29;54.47;;;28.23;;
8574;SDS011;4325;42.520;27.448;2024-01-15T07:17:56;57.70;;;30.17;;
8574;SDS011;4325;42.520;27.448;2024-01-15T07:20:23;65.13;;;30.57;;
8574;SDS011;4325;42.520;27.448;2024-01-15T07:22:50;66.20;;;33.80;;
8574;SDS011;4325;42.520;27.448;2024-01-15T07:25:17;66.10;;;36.83;;
8574;SDS011;4325;42.520;27.448;2024-01-15T07:27:44;58.80;;;32.27;;
8574;SDS011;4325;42.520;27.448;2024-01-15T07:30:12;47.70;;;25.13;;
8574;SDS011;4325;42.520;27.448;2024-01-15T07:32:41;45.67;;;24.53;;
8574;SDS011;4325;42.520;27.448;2024-01-15T07:35:08;39.60;;;21.83;;
8574;SDS011;4325;42.520;27.448;2024-01-15T07:37:36;34.83;;;18.40;;
8574;SDS011;4325;42.520;27.448;2024-01-15T07:40:03;35.13;;;18.27;;
8574;SDS011;4325;42.520;27.448;2024-01-15T07:42:31;31.03;;;16.97;;
8574;SDS011;4325;42.520;27.448;2024-01-15T07:44:59;28.80;;;15.77;;
8574;SDS011;4325;42.520;27.448;2024-01-15T07:47:26;30.37;;;18.50;;
8574;SDS011;4325;42.520;27.448;2024-01-15T07:49:55;30.33;;;17.60;;
8574;SDS011;4325;42.520;27.448;2024-01-15T07:52:22;28.17;;;17.43;;
8574;SDS011;4325;42.520;27.448;2024-01-15T07:54:49;28.37;;;17.50;;
8574;SDS011;4325;42.520;27.448;2024-01-15T07:57:16;32.67;;;18.40;;
8574;SDS011;4325;42.520;27.448;2024-01-15T07:59:43;30.80;;;19.03;;
8574;SDS011;4325;42.520;27.448;2024-01-15T08:02:10;32.00;;;17.60;;
8574;SDS011;4325;42.520;27.448;2024-01-15T08:04:37;30.73;;;18.90;;
8574;SDS011;4325;42.520;27.448;2024-01-15T08:07:06;30.43;;;19.30;;
8574;SDS011;4325;42.520;27.448;2024-01-15T08:09:33;32.00;;;20.03;;
8574;SDS011;4325;42.520;27.448;2024-01-15T08:12:00;31.17;;;19.43;;
8574;SDS011;4325;42.520;27.448;2024-01-15T08:14:27;32.83;;;20.80;;
8574;SDS011;4325;42.520;27.448;2024-01-15T08:16:54;35.57;;;20.50;;
8574;SDS011;4325;42.520;27.448;2024-01-15T08:19:21;32.27;;;21.13;;
8574;SDS011;4325;42.520;27.448;2024-01-15T08:21:49;33.53;;;20.87;;
8574;SDS011;4325;42.520;27.448;2024-01-15T08:24:17;34.73;;;22.17;;
8574;SDS011;4325;42.520;27.448;2024-01-15T08:26:44;32.90;;;21.50;;
8574;SDS011;4325;42.520;27.448;2024-01-15T08:29:11;37.20;;;21.53;;
8574;SDS011;4325;42.520;27.448;2024-01-15T08:31:38;29.33;;;21.40;;
8574;SDS011;4325;42.520;27.448;2024-01-15T08:34:05;27.87;;;20.33;;
8574;SDS011;4325;42.520;27.448;2024-01-15T08:36:33;28.60;;;19.53;;
8574;SDS011;4325;42.520;27.448;2024-01-15T08:39:01;27.13;;;19.00;;
8574;SDS011;4325;42.520;27.448;2024-01-15T08:41:31;27.27;;;18.80;;
8574;SDS011;4325;42.520;27.448;2024-01-15T08:43:58;27.70;;;19.50;;
8574;SDS011;4325;42.520;27.448;2024-01-15T08:46:25;42.77;;;24.27;;
8574;SDS011;4325;42.520;27.448;2024-01-15T08:48:52;30.83;;;23.30;;
8574;SDS011;4325;42.520;27.448;2024-01-15T08:51:19;33.33;;;22.07;;
8574;SDS011;4325;42.520;27.448;2024-01-15T08:53:47;30.50;;;21.87;;
8574;SDS011;4325;42.520;27.448;2024-01-15T08:56:14;28.03;;;22.20;;
8574;SDS011;4325;42.520;27.448;2024-01-15T08:58:42;40.80;;;21.40;;
8574;SDS011;4325;42.520;27.448;2024-01-15T09:01:11;34.13;;;22.17;;
8574;SDS011;4325;42.520;27.448;2024-01-15T09:03:38;33.50;;;23.90;;
8574;SDS011;4325;42.520;27.448;2024-01-15T09:06:07;41.17;;;29.00;;
8574;SDS011;4325;42.520;27.448;2024-01-15T09:08:34;45.97;;;30.47;;
8574;SDS011;4325;42.520;27.448;2024-01-15T09:11:02;40.10;;;28.83;;
8574;SDS011;4325;42.520;27.448;2024-01-15T09:13:29;36.07;;;26.43;;
8574;SDS011;4325;42.520;27.448;2024-01-15T09:15:57;48.97;;;27.00;;
8574;SDS011;4325;42.520;27.448;2024-01-15T09:18:25;42.83;;;26.70;;
8574;SDS011;4325;42.520;27.448;2024-01-15T09:20:52;38.03;;;26.87;;
8574;SDS011;4325;42.520;27.448;2024-01-15T09:23:19;42.10;;;28.97;;
8574;SDS011;4325;42.520;27.448;2024-01-15T09:25:46;40.17;;;27.03;;
8574;SDS011;4325;42.520;27.448;2024-01-15T09:28:14;32.80;;;24.13;;
8574;SDS011;4325;42.520;27.448;2024-01-15T09:30:41;40.90;;;24.13;;
8574;SDS011;4325;42.520;27.448;2024-01-15T09:33:09;29.37;;;22.23;;
8574;SDS011;4325;42.520;27.448;2024-01-15T09:35:36;18.40;;;15.00;;
8574;SDS011;4325;42.520;27.448;2024-01-15T09:38:03;27.83;;;17.50;;
8574;SDS011;4325;42.520;27.448;2024-01-15T09:40:31;27.47;;;17.57;;
8574;SDS011;4325;42.520;27.448;2024-01-15T09:42:59;24.80;;;18.90;;
8574;SDS011;4325;42.520;27.448;2024-01-15T09:45:28;25.47;;;19.20;;
8574;SDS011;4325;42.520;27.448;2024-01-15T09:47:55;27.53;;;17.87;;
8574;SDS011;4325;42.520;27.448;2024-01-15T09:50:24;26.10;;;19.27;;
8574;SDS011;4325;42.520;27.448;2024-01-15T09:52:51;27.80;;;18.53;;
8574;SDS011;4325;42.520;27.448;2024-01-15T09:55:19;32.10;;;19.13;;
8574;SDS011;4325;42.520;27.448;2024-01-15T09:57:47;26.87;;;19.53;;
8574;SDS011;4325;42.520;27.448;2024-01-15T10:00:14;28.07;;;18.77;;
8574;SDS011;4325;42.520;27.448;2024-01-15T10:02:44;23.63;;;17.77;;
8574;SDS011;4325;42.520;27.448;2024-01-15T10:05:12;26.67;;;17.93;;
8574;SDS011;4325;42.520;27.448;2024-01-15T10:07:40;24.83;;;17.43;;
8574;SDS011;4325;42.520;27.448;2024-01-15T10:10:08;29.07;;;17.70;;
8574;SDS011;4325;42.520;27.448;2024-01-15T10:12:37;30.80;;;18.63;;
8574;SDS011;4325;42.520;27.448;2024-01-15T10:15:06;25.60;;;17.07;;
8574;SDS011;4325;42.520;27.448;2024-01-15T10:17:36;24.47;;;16.10;;
8574;SDS011;4325;42.520;27.448;2024-01-15T10:20:06;28.63;;;18.77;;
8574;SDS011;4325;42.520;27.448;2024-01-15T10:22:35;25.50;;;17.77;;
8574;SDS011;4325;42.520;27.448;2024-01-15T10:25:08;35.33;;;24.10;;
8574;SDS011;4325;42.520;27.448;2024-01-15T10:27:37;44.30;;;25.03;;
8574;SDS011;4325;42.520;27.448;2024-01-15T10:30:05;44.10;;;27.10;;
8574;SDS011;4325;42.520;27.448;2024-01-15T10:32:33;47.67;;;28.40;;
8574;SDS011;4325;42.520;27.448;2024-01-15T10:35:00;42.47;;;25.87;;
8574;SDS011;4325;42.520;27.448;2024-01-15T10:37:27;36.17;;;21.50;;
8574;SDS011;4325;42.520;27.448;2024-01-15T10:39:54;39.20;;;23.87;;
8574;SDS011;4325;42.520;27.448;2024-01-15T10:42:23;41.97;;;26.07;;
8574;SDS011;4325;42.520;27.448;2024-01-15T10:44:50;42.90;;;25.97;;
8574;SDS011;4325;42.520;27.448;2024-01-15T10:47:17;36.37;;;23.07;;
8574;SDS011;4325;42.520;27.448;2024-01-15T10:49:45;26.67;;;18.97;;
8574;SDS011;4325;42.520;27.448;2024-01-15T10:52:12;29.33;;;21.70;;
8574;SDS011;4325;42.520;27.448;2024-01-15T10:54:41;31.13;;;20.37;;
8574;SDS011;4325;42.520;27.448;2024-01-15T10:57:09;27.27;;;20.30;;
8574;SDS011;4325;42.520;27.448;2024-01-15T10:59:40;36.27;;;20.53;;
8574;SDS011;4325;42.520;27.448;2024-01-15T11:02:07;29.23;;;19.80;;
8574;SDS011;4325;42.520;27.448;2024-01-15T11:04:35;28.73;;;18.07;;
8574;SDS011;4325;42.520;27.448;2024-01-15T11:07:03;25.40;;;17.07;;
8574;SDS011;4325;42.520;27.448;2024-01-15T11:09:32;27.17;;;18.57;;
8574;SDS011;4325;42.520;27.448;2024-01-15T11:12:06;25.67;;;17.63;;
8574;SDS011;4325;42.520;27.448;2024-01-15T11:14:35;30.43;;;18.13;;
8574;SDS011;4325;42.520;27.448;2024-01-15T11:17:08;31.70;;;19.13;;
8574;SDS011;4325;42.520;27.448;2024-01-15T11:19:36;29.77;;;19.00;;
8574;SDS011;4325;42.520;27.448;2024-01-15T11:22:06;26.67;;;19.40;;
8574;SDS011;4325;42.520;27.448;2024-01-15T11:24:35;28.13;;;18.87;;
8574;SDS011;4325;42.520;27.448;2024-01-15T11:27:03;24.53;;;16.50;;
8574;SDS011;4325;42.520;27.448;2024-01-15T11:29:31;28.77;;;16.47;;
8574;SDS011;4325;42.520;27.448;2024-01-15T11:32:02;23.20;;;15.73;;
8574;SDS011;4325;42.520;27.448;2024-01-15T11:37:18;27.87;;;16.17;;
8574;SDS011;4325;42.520;27.448;2024-01-15T11:39:45;29.70;;;18.53;;
8574;SDS011;4325;42.520;27.448;2024-01-15T11:42:13;29.13;;;18.10;;
8574;SDS011;4325;42.520;27.448;2024-01-15T11:44:41;30.90;;;18.87;;
8574;SDS011;4325;42.520;27.448;2024-01-15T11:47:09;30.27;;;17.43;;
8574;SDS011;4325;42.520;27.448;2024-01-15T11:49:48;32.80;;;17.50;;
8574;SDS011;4325;42.520;27.448;2024-01-15T11:52:25;31.60;;;18.10;;
8574;SDS011;4325;42.520;27.448;2024-01-15T11:54:55;30.30;;;17.10;;
8574;SDS011;4325;42.520;27.448;2024-01-15T11:57:30;31.37;;;17.53;;
8574;SDS011;4325;42.520;27.448;2024-01-15T12:00:06;34.27;;;17.63;;
8574;SDS011;4325;42.520;27.448;2024-01-15T12:02:36;34.90;;;16.73;;
8574;SDS011;4325;42.520;27.448;2024-01-15T12:05:03;39.17;;;20.53;;
8574;SDS011;4325;42.520;27.448;2024-01-15T12:07:32;39.33;;;20.20;;
8574;SDS011;4325;42.520;27.448;2024-01-15T12:10:00;35.40;;;20.13;;
8574;SDS011;4325;42.520;27.448;2024-01-15T12:12:29;34.97;;;19.47;;
8574;SDS011;4325;42.520;27.448;2024-01-15T12:15:06;30.67;;;16.63;;
8574;SDS011;4325;42.520;27.448;2024-01-15T12:17:36;30.03;;;17.33;;
8574;SDS011;4325;42.520;27.448;2024-01-15T12:20:03;22.40;;;14.43;;
8574;SDS011;4325;42.520;27.448;2024-01-15T12:22:31;23.37;;;14.07;;
8574;SDS011;4325;42.520;27.448;2024-01-15T12:24:58;24.90;;;15.40;;
8574;SDS011;4325;42.520;27.448;2024-01-15T12:27:25;38.70;;;19.30;;
8574;SDS011;4325;42.520;27.448;2024-01-15T12:29:52;31.60;;;20.03;;
8574;SDS011;4325;42.520;27.448;2024-01-15T12:32:20;34.03;;;21.27;;
8574;SDS011;4325;42.520;27.448;2024-01-15T12:34:50;30.17;;;17.50;;
8574;SDS011;4325;42.520;27.448;2024-01-15T12:37:17;29.90;;;17.40;;
8574;SDS011;4325;42.520;27.448;2024-01-15T12:39:45;32.43;;;16.47;;
8574;SDS011;4325;42.520;27.448;2024-01-15T12:42:13;30.53;;;17.30;;
8574;SDS011;4325;42.520;27.448;2024-01-15T12:44:41;36.50;;;17.80;;
8574;SDS011;4325;42.520;27.448;2024-01-15T12:47:08;32.60;;;18.03;;
8574;SDS011;4325;42.520;27.448;2024-01-15T12:49:37;38.53;;;21.73;;
8574;SDS011;4325;42.520;27.448;2024-01-15T12:52:09;35.93;;;23.03;;
8574;SDS011;4325;42.520;27.448;2024-01-15T12:54:37;40.07;;;23.87;;
8574;SDS011;4325;42.520;27.448;2024-01-15T12:57:04;40.00;;;21.70;;
8574;SDS011;4325;42.520;27.448;2024-01-15T12:59:31;32.80;;;17.50;;
8574;SDS011;4325;42.520;27.448;2024-01-15T13:01:58;28.50;;;15.87;;
8574;SDS011;4325;42.520;27.448;2024-01-15T13:04:25;29.70;;;15.43;;
8574;SDS011;4325;42.520;27.448;2024-01-15T13:06:52;27.60;;;15.23;;
8574;SDS011;4325;42.520;27.448;2024-01-15T13:09:21;27.07;;;14.23;;
8574;SDS011;4325;42.520;27.448;2024-01-15T13:11:48;21.13;;;13.43;;
8574;SDS011;4325;42.520;27.448;2024-01-15T13:14:15;28.33;;;13.73;;
8574;SDS011;4325;42.520;27.448;2024-01-15T13:16:42;19.07;;;11.90;;
8574;SDS011;4325;42.520;27.448;2024-01-15T13:19:09;19.53;;;11.47;;
8574;SDS011;4325;42.520;27.448;2024-01-15T13:21:38;21.47;;;12.10;;
8574;SDS011;4325;42.520;27.448;2024-01-15T13:24:05;18.13;;;11.80;;
8574;SDS011;4325;42.520;27.448;2024-01-15T13:26:34;17.33;;;11.83;;
8574;SDS011;4325;42.520;27.448;2024-01-15T13:29:02;15.80;;;10.87;;
8574;SDS011;4325;42.520;27.448;2024-01-15T13:31:30;20.93;;;11.67;;
8574;SDS011;4325;42.520;27.448;2024-01-15T13:33:57;18.60;;;12.00;;
8574;SDS011;4325;42.520;27.448;2024-01-15T13:36:24;16.90;;;12.10;;
8574;SDS011;4325;42.520;27.448;2024-01-15T13:38:51;21.80;;;12.03;;
8574;SDS011;4325;42.520;27.448;2024-01-15T13:41:18;19.07;;;12.70;;
8574;SDS011;4325;42.520;27.448;2024-01-15T13:46:18;18.63;;;12.87;;
8574;SDS011;4325;42.520;27.448;2024-01-15T13:48:45;20.67;;;13.97;;
8574;SDS011;4325;42.520;27.448;2024-01-15T13:51:13;25.60;;;14.07;;
8574;SDS011;4325;42.520;27.448;2024-01-15T13:53:40;32.10;;;15.23;;
8574;SDS011;4325;42.520;27.448;2024-01-15T13:56:07;34.60;;;21.43;;
8574;SDS011;4325;42.520;27.448;2024-01-15T13:58:35;39.37;;;21.00;;
8574;SDS011;4325;42.520;27.448;2024-01-15T14:01:04;25.80;;;14.40;;
8574;SDS011;4325;42.520;27.448;2024-01-15T14:03:32;25.77;;;13.00;;
8574;SDS011;4325;42.520;27.448;2024-01-15T14:05:59;25.33;;;14.87;;
8574;SDS011;4325;42.520;27.448;2024-01-15T14:08:28;30.20;;;15.90;;
8574;SDS011;4325;42.520;27.448;2024-01-15T14:10:55;25.03;;;15.20;;
8574;SDS011;4325;42.520;27.448;2024-01-15T14:13:22;39.70;;;17.93;;
8574;SDS011;4325;42.520;27.448;2024-01-15T14:15:49;25.33;;;14.40;;
8574;SDS011;4325;42.520;27.448;2024-01-15T14:18:18;28.23;;;17.50;;
8574;SDS011;4325;42.520;27.448;2024-01-15T14:20:45;31.47;;;18.57;;
8574;SDS011;4325;42.520;27.448;2024-01-15T14:23:12;27.20;;;15.77;;
8574;SDS011;4325;42.520;27.448;2024-01-15T14:25:39;25.03;;;13.47;;
8574;SDS011;4325;42.520;27.448;2024-01-15T14:28:06;21.00;;;12.30;;
8574;SDS011;4325;42.520;27.448;2024-01-15T14:30:33;19.80;;;12.43;;
8574;SDS011;4325;42.520;27.448;2024-01-15T14:33:00;24.27;;;13.20;;
8574;SDS011;4325;42.520;27.448;2024-01-15T14:35:29;26.00;;;13.10;;
8574;SDS011;4325;42.520;27.448;2024-01-15T14:37:56;19.90;;;12.87;;
8574;SDS011;4325;42.520;27.448;2024-01-15T14:40:23;26.77;;;12.63;;